sensor_id;sensor_type;location;lat;lon;timestamp;pressure;altitude;pressure_sealevel;temperature;humidity
47524;BME280;33253;42.144;25.884;2024-02-23T00:01:26;100487.53;;;7.77;100.00
47524;BME280;33253;42.144;25.884;2024-02-23T00:03:51;100491.06;;;7.79;100.00
47524;BME280;33253;42.144;25.884;2024-02-23T00:06:17;100487.72;;;7.80;100.00
47524;BME280;33253;42.144;25.884;2024-02-23T00:08:43;100478.00;;;7.74;100.00
47524;BME280;33253;42.144;25.884;2024-02-23T00:11:08;100477.47;;;7.64;100.00
47524;BME280;33253;42.144;25.884;2024-02-23T00:13:34;100491.63;;;7.55;100.00
47524;BME280;33253;42.144;25.884;2024-02-23T00:15:59;100486.19;;;7.49;100.00
47524;BME280;33253;42.144;25.884;2024-02-23T00:18:25;100477.28;;;7.42;100.00
47524;BME280;33253;42.144;25.884;2024-02-23T00:20:50;100479.97;;;7.44;100.00
47524;BME280;33253;42.144;25.884;2024-02-23T00:23:16;100483.41;;;7.44;100.00
47524;BME280;33253;42.144;25.884;2024-02-23T00:25:41;100475.44;;;7.40;100.00
47524;BME280;33253;42.144;25.884;2024-02-23T00:28:07;100453.56;;;7.30;100.00
47524;BME280;33253;42.144;25.884;2024-02-23T00:30:33;100474.97;;;7.47;100.00
47524;BME280;33253;42.144;25.884;2024-02-23T00:32:58;100468.94;;;7.47;100.00
47524;BME280;33253;42.144;25.884;2024-02-23T00:35:24;100463.72;;;7.45;100.00
47524;BME280;33253;42.144;25.884;2024-02-23T00:37:50;100465.03;;;7.37;100.00
47524;BME280;33253;42.144;25.884;2024-02-23T00:40:15;100462.78;;;7.43;100.00
47524;BME280;33253;42.144;25.884;2024-02-23T00:42:41;100480.03;;;7.45;100.00
47524;BME280;33253;42.144;25.884;2024-02-23T00:45:07;100401.09;;;7.07;100.00
47524;BME280;33253;42.144;25.884;2024-02-23T00:47:32;100465.84;;;7.36;100.00
47524;BME280;33253;42.144;25.884;2024-02-23T00:49:58;100466.63;;;7.35;100.00
47524;BME280;33253;42.144;25.884;2024-02-23T00:52:24;100465.59;;;7.31;100.00
47524;BME280;33253;42.144;25.884;2024-02-23T00:54:50;100459.72;;;7.16;100.00
47524;BME280;33253;42.144;25.884;2024-02-23T00:57:15;100382.72;;;6.64;100.00
47524;BME280;33253;42.144;25.884;2024-02-23T00:59:42;100459.31;;;7.08;100.00
47524;BME280;33253;42.144;25.884;2024-02-23T01:02:07;100453.22;;;7.06;100.00
47524;BME280;33253;42.144;25.884;2024-02-23T01:04:33;100450.34;;;7.00;100.00
47524;BME280;33253;42.144;25.884;2024-02-23T01:06:58;100363.94;;;6.49;100.00
47524;BME280;33253;42.144;25.884;2024-02-23T01:09:24;100381.50;;;6.58;100.00
47524;BME280;33253;42.144;25.884;2024-02-23T01:11:49;100366.50;;;6.49;100.00
47524;BME280;33253;42.144;25.884;2024-02-23T01:14:15;100448.25;;;6.92;100.00
47524;BME280;33253;42.144;25.884;2024-02-23T01:16:40;100459.31;;;6.91;100.00
47524;BME280;33253;42.144;25.884;2024-02-23T01:19:06;100441.78;;;6.83;100.00
47524;BME280;33253;42.144;25.884;2024-02-23T01:21:31;100444.50;;;6.86;100.00
47524;BME280;33253;42.144;25.884;2024-02-23T01:23:57;100369.41;;;6.39;100.00
47524;BME280;33253;42.144;25.884;2024-02-23T01:26:23;100355.63;;;6.37;100.00
47524;BME280;33253;42.144;25.884;2024-02-23T01:28:48;100438.66;;;6.88;100.00
47524;BME280;33253;42.144;25.884;2024-02-23T01:31:14;100435.44;;;6.92;100.00
47524;BME280;33253;42.144;25.884;2024-02-23T01:33:40;100341.69;;;6.31;100.00
47524;BME280;33253;42.144;25.884;2024-02-23T01:36:06;100419.25;;;6.77;100.00
47524;BME280;33253;42.144;25.884;2024-02-23T01:38:32;100411.47;;;6.59;100.00
47524;BME280;33253;42.144;25.884;2024-02-23T01:41:01;100413.31;;;6.61;100.00
47524;BME280;33253;42.144;25.884;2024-02-23T01:43:27;100421.97;;;6.63;100.00
47524;BME280;33253;42.144;25.884;2024-02-23T01:45:52;100421.44;;;6.69;100.00
47524;BME280;33253;42.144;25.884;2024-02-23T01:48:19;100418.94;;;6.71;100.00
47524;BME280;33253;42.144;25.884;2024-02-23T01:50:44;100403.88;;;6.44;100.00
47524;BME280;33253;42.144;25.884;2024-02-23T01:53:11;100329.38;;;5.93;100.00
47524;BME280;33253;42.144;25.884;2024-02-23T01:55:40;100395.91;;;6.23;100.00
47524;BME280;33253;42.144;25.884;2024-02-23T01:58:07;100412.03;;;6.20;100.00
47524;BME280;33253;42.144;25.884;2024-02-23T02:00:34;100413.66;;;6.18;100.00
47524;BME280;33253;42.144;25.884;2024-02-23T02:03:00;100409.19;;;6.15;100.00
47524;BME280;33253;42.144;25.884;2024-02-23T02:05:26;100408.50;;;6.18;100.00
47524;BME280;33253;42.144;25.884;2024-02-23T02:07:53;100363.25;;;5.87;100.00
47524;BME280;33253;42.144;25.884;2024-02-23T02:10:24;100259.25;;;5.26;100.00
47524;BME280;33253;42.144;25.884;2024-02-23T02:12:49;100347.22;;;5.75;100.00
47524;BME280;33253;42.144;25.884;2024-02-23T02:15:15;100409.84;;;6.11;100.00
47524;BME280;33253;42.144;25.884;2024-02-23T02:17:41;100330.94;;;5.58;100.00
47524;BME280;33253;42.144;25.884;2024-02-23T02:20:11;100411.03;;;5.87;100.00
47524;BME280;33253;42.144;25.884;2024-02-23T02:22:37;100334.44;;;5.13;100.00
47524;BME280;33253;42.144;25.884;2024-02-23T02:25:02;100416.41;;;5.60;100.00
47524;BME280;33253;42.144;25.884;2024-02-23T02:27:28;100328.53;;;5.14;100.00
47524;BME280;33253;42.144;25.884;2024-02-23T02:29:53;100410.38;;;5.59;100.00
47524;BME280;33253;42.144;25.884;2024-02-23T02:32:19;100412.38;;;5.48;100.00
47524;BME280;33253;42.144;25.884;2024-02-23T02:34:45;100402.50;;;5.25;100.00
47524;BME280;33253;42.144;25.884;2024-02-23T02:37:10;100343.75;;;4.81;100.00
47524;BME280;33253;42.144;25.884;2024-02-23T02:39:36;100418.72;;;5.10;100.00
47524;BME280;33253;42.144;25.884;2024-02-23T02:42:01;100413.53;;;5.09;100.00
47524;BME280;33253;42.144;25.884;2024-02-23T02:44:27;100407.34;;;4.90;100.00
47524;BME280;33253;42.144;25.884;2024-02-23T02:46:56;100417.47;;;4.89;100.00
47524;BME280;33253;42.144;25.884;2024-02-23T02:49:22;100414.34;;;4.64;100.00
47524;BME280;33253;42.144;25.884;2024-02-23T02:51:47;100415.13;;;4.63;100.00
47524;BME280;33253;42.144;25.884;2024-02-23T02:54:13;100415.94;;;4.62;100.00
47524;BME280;33253;42.144;25.884;2024-02-23T02:56:43;100350.41;;;4.21;100.00
47524;BME280;33253;42.144;25.884;2024-02-23T02:59:09;100375.78;;;4.46;100.00
47524;BME280;33253;42.144;25.884;2024-02-23T03:01:35;100409.13;;;4.63;100.00
47524;BME280;33253;42.144;25.884;2024-02-23T03:04:01;100331.34;;;4.16;100.00
47524;BME280;33253;42.144;25.884;2024-02-23T03:06:26;100340.78;;;4.17;100.00
47524;BME280;33253;42.144;25.884;2024-02-23T03:08:52;100405.75;;;4.49;100.00
47524;BME280;33253;42.144;25.884;2024-02-23T03:11:17;100384.59;;;4.23;100.00
47524;BME280;33253;42.144;25.884;2024-02-23T03:13:43;100329.22;;;3.80;100.00
47524;BME280;33253;42.144;25.884;2024-02-23T03:16:16;100331.94;;;3.83;100.00
47524;BME280;33253;42.144;25.884;2024-02-23T03:18:41;100331.66;;;3.79;100.00
47524;BME280;33253;42.144;25.884;2024-02-23T03:21:07;100423.94;;;4.12;100.00
47524;BME280;33253;42.144;25.884;2024-02-23T03:23:36;100418.63;;;4.09;100.00
47524;BME280;33253;42.144;25.884;2024-02-23T03:26:02;100320.63;;;3.51;100.00
47524;BME280;33253;42.144;25.884;2024-02-23T03:28:27;100413.19;;;3.89;100.00
47524;BME280;33253;42.144;25.884;2024-02-23T03:30:53;100416.22;;;3.83;100.00
47524;BME280;33253;42.144;25.884;2024-02-23T03:33:19;100417.69;;;3.80;100.00
47524;BME280;33253;42.144;25.884;2024-02-23T03:35:44;100404.75;;;3.77;100.00
47524;BME280;33253;42.144;25.884;2024-02-23T03:38:10;100414.28;;;3.79;100.00
47524;BME280;33253;42.144;25.884;2024-02-23T03:40:35;100419.28;;;3.78;100.00
47524;BME280;33253;42.144;25.884;2024-02-23T03:43:01;100328.78;;;3.19;100.00
47524;BME280;33253;42.144;25.884;2024-02-23T03:45:27;100424.88;;;3.72;100.00
47524;BME280;33253;42.144;25.884;2024-02-23T03:47:53;100427.44;;;3.72;100.00
47524;BME280;33253;42.144;25.884;2024-02-23T03:50:19;100417.53;;;3.63;100.00
47524;BME280;33253;42.144;25.884;2024-02-23T03:52:44;100395.22;;;3.47;100.00
47524;BME280;33253;42.144;25.884;2024-02-23T03:55:10;100426.63;;;3.46;100.00
47524;BME280;33253;42.144;25.884;2024-02-23T03:57:36;100423.69;;;3.40;100.00
47524;BME280;33253;42.144;25.884;2024-02-23T04:00:02;100419.19;;;3.36;100.00
47524;BME280;33253;42.144;25.884;2024-02-23T04:02:28;100420.94;;;3.37;100.00
47524;BME280;33253;42.144;25.884;2024-02-23T04:04:54;100408.38;;;3.40;100.00
47524;BME280;33253;42.144;25.884;2024-02-23T04:07:20;100402.59;;;3.43;100.00
47524;BME280;33253;42.144;25.884;2024-02-23T04:09:45;100407.13;;;3.60;100.00
47524;BME280;33253;42.144;25.884;2024-02-23T04:12:23;100408.78;;;3.60;100.00
47524;BME280;33253;42.144;25.884;2024-02-23T04:14:48;100422.03;;;3.67;100.00
47524;BME280;33253;42.144;25.884;2024-02-23T04:17:14;100416.44;;;3.73;100.00
47524;BME280;33253;42.144;25.884;2024-02-23T04:19:43;100415.84;;;3.64;100.00
47524;BME280;33253;42.144;25.884;2024-02-23T04:22:09;100410.63;;;3.49;100.00
47524;BME280;33253;42.144;25.884;2024-02-23T04:24:41;100410.16;;;3.41;100.00
47524;BME280;33253;42.144;25.884;2024-02-23T04:27:07;100363.03;;;3.09;100.00
47524;BME280;33253;42.144;25.884;2024-02-23T04:29:33;100410.66;;;3.35;100.00
47524;BME280;33253;42.144;25.884;2024-02-23T04:32:01;100394.91;;;3.16;100.00
47524;BME280;33253;42.144;25.884;2024-02-23T04:34:28;100324.66;;;2.81;100.00
47524;BME280;33253;42.144;25.884;2024-02-23T04:36:54;100396.19;;;3.22;100.00
47524;BME280;33253;42.144;25.884;2024-02-23T04:39:20;100311.88;;;2.67;100.00
47524;BME280;33253;42.144;25.884;2024-02-23T04:41:46;100415.91;;;3.25;100.00
47524;BME280;33253;42.144;25.884;2024-02-23T04:44:11;100405.59;;;3.10;100.00
47524;BME280;33253;42.144;25.884;2024-02-23T04:46:36;100411.50;;;3.09;100.00
47524;BME280;33253;42.144;25.884;2024-02-23T04:49:02;100410.28;;;3.04;100.00
47524;BME280;33253;42.144;25.884;2024-02-23T04:51:28;100412.06;;;3.05;100.00
47524;BME280;33253;42.144;25.884;2024-02-23T04:53:53;100408.63;;;3.04;100.00
47524;BME280;33253;42.144;25.884;2024-02-23T04:56:19;100415.88;;;2.98;100.00
47524;BME280;33253;42.144;25.884;2024-02-23T04:58:44;100415.66;;;2.95;100.00
47524;BME280;33253;42.144;25.884;2024-02-23T05:01:10;100414.13;;;2.97;100.00
47524;BME280;33253;42.144;25.884;2024-02-23T05:03:37;100410.38;;;2.92;100.00
47524;BME280;33253;42.144;25.884;2024-02-23T05:06:03;100418.91;;;2.92;100.00
47524;BME280;33253;42.144;25.884;2024-02-23T05:08:29;100415.75;;;2.83;100.00
47524;BME280;33253;42.144;25.884;2024-02-23T05:10:58;100432.31;;;2.90;100.00
47524;BME280;33253;42.144;25.884;2024-02-23T05:13:24;100437.75;;;2.95;100.00
47524;BME280;33253;42.144;25.884;2024-02-23T05:15:49;100418.81;;;2.91;100.00
47524;BME280;33253;42.144;25.884;2024-02-23T05:18:15;100422.91;;;2.89;100.00
47524;BME280;33253;42.144;25.884;2024-02-23T05:20:41;100409.88;;;2.98;100.00
47524;BME280;33253;42.144;25.884;2024-02-23T05:23:06;100349.50;;;2.71;100.00
47524;BME280;33253;42.144;25.884;2024-02-23T05:25:32;100424.91;;;3.06;100.00
47524;BME280;33253;42.144;25.884;2024-02-23T05:27:57;100333.94;;;2.41;100.00
47524;BME280;33253;42.144;25.884;2024-02-23T05:30:23;100444.81;;;2.99;100.00
47524;BME280;33253;42.144;25.884;2024-02-23T05:32:48;100445.03;;;3.02;100.00
47524;BME280;33253;42.144;25.884;2024-02-23T05:35:14;100374.31;;;2.61;100.00
47524;BME280;33253;42.144;25.884;2024-02-23T05:37:41;100427.72;;;2.98;100.00
47524;BME280;33253;42.144;25.884;2024-02-23T05:40:07;100353.78;;;2.59;100.00
47524;BME280;33253;42.144;25.884;2024-02-23T05:42:38;100435.16;;;3.20;100.00
47524;BME280;33253;42.144;25.884;2024-02-23T05:45:06;100438.88;;;3.25;100.00
47524;BME280;33253;42.144;25.884;2024-02-23T05:47:37;100441.03;;;3.19;100.00
47524;BME280;33253;42.144;25.884;2024-02-23T05:50:03;100445.75;;;3.26;100.00
47524;BME280;33253;42.144;25.884;2024-02-23T05:52:31;100347.56;;;2.67;100.00
47524;BME280;33253;42.144;25.884;2024-02-23T05:54:57;100454.78;;;3.21;100.00
47524;BME280;33253;42.144;25.884;2024-02-23T05:57:22;100441.78;;;3.04;100.00
47524;BME280;33253;42.144;25.884;2024-02-23T05:59:48;100448.03;;;2.96;100.00
47524;BME280;33253;42.144;25.884;2024-02-23T06:02:13;100439.38;;;2.81;100.00
47524;BME280;33253;42.144;25.884;2024-02-23T06:04:42;100436.84;;;2.43;100.00
47524;BME280;33253;42.144;25.884;2024-02-23T06:07:08;100456.38;;;2.68;100.00
47524;BME280;33253;42.144;25.884;2024-02-23T06:09:34;100458.41;;;2.86;100.00
47524;BME280;33253;42.144;25.884;2024-02-23T06:11:59;100459.34;;;3.00;100.00
47524;BME280;33253;42.144;25.884;2024-02-23T06:14:25;100463.34;;;2.96;100.00
47524;BME280;33253;42.144;25.884;2024-02-23T06:16:50;100469.06;;;3.05;100.00
47524;BME280;33253;42.144;25.884;2024-02-23T06:19:16;100435.88;;;2.92;100.00
47524;BME280;33253;42.144;25.884;2024-02-23T06:21:41;100451.78;;;3.01;100.00
47524;BME280;33253;42.144;25.884;2024-02-23T06:24:07;100458.69;;;3.16;100.00
47524;BME280;33253;42.144;25.884;2024-02-23T06:26:34;100461.56;;;3.34;100.00
47524;BME280;33253;42.144;25.884;2024-02-23T06:29:00;100463.84;;;3.56;100.00
47524;BME280;33253;42.144;25.884;2024-02-23T06:31:26;100469.28;;;3.74;100.00
47524;BME280;33253;42.144;25.884;2024-02-23T06:33:51;100473.59;;;3.88;100.00
47524;BME280;33253;42.144;25.884;2024-02-23T06:36:18;100405.34;;;3.46;100.00
47524;BME280;33253;42.144;25.884;2024-02-23T06:38:46;100481.38;;;3.90;100.00
47524;BME280;33253;42.144;25.884;2024-02-23T06:41:12;100429.38;;;3.76;100.00
47524;BME280;33253;42.144;25.884;2024-02-23T06:43:38;100477.59;;;4.12;100.00
47524;BME280;33253;42.144;25.884;2024-02-23T06:46:08;100445.09;;;4.09;100.00
47524;BME280;33253;42.144;25.884;2024-02-23T06:48:34;100468.91;;;4.36;100.00
47524;BME280;33253;42.144;25.884;2024-02-23T06:51:01;100477.97;;;4.60;100.00
47524;BME280;33253;42.144;25.884;2024-02-23T06:53:27;100480.00;;;4.79;100.00
47524;BME280;33253;42.144;25.884;2024-02-23T06:55:53;100449.47;;;4.82;100.00
47524;BME280;33253;42.144;25.884;2024-02-23T06:58:18;100479.00;;;5.20;100.00
47524;BME280;33253;42.144;25.884;2024-02-23T07:00:44;100475.91;;;5.41;100.00
47524;BME280;33253;42.144;25.884;2024-02-23T07:03:09;100467.38;;;5.55;100.00
47524;BME280;33253;42.144;25.884;2024-02-23T07:05:35;100388.53;;;5.34;100.00
47524;BME280;33253;42.144;25.884;2024-02-23T07:08:01;100454.78;;;6.05;100.00
47524;BME280;33253;42.144;25.884;2024-02-23T07:10:27;100374.91;;;5.97;100.00
47524;BME280;33253;42.144;25.884;2024-02-23T07:12:53;100458.88;;;6.66;100.00
47524;BME280;33253;42.144;25.884;2024-02-23T07:15:20;100456.69;;;6.90;100.00
47524;BME280;33253;42.144;25.884;2024-02-23T07:17:46;100462.84;;;6.93;100.00
47524;BME280;33253;42.144;25.884;2024-02-23T07:20:12;100392.66;;;6.58;100.00
47524;BME280;33253;42.144;25.884;2024-02-23T07:22:38;100462.53;;;7.20;100.00
47524;BME280;33253;42.144;25.884;2024-02-23T07:25:05;100456.00;;;7.45;100.00
47524;BME280;33253;42.144;25.884;2024-02-23T07:27:31;100444.38;;;7.52;100.00
47524;BME280;33253;42.144;25.884;2024-02-23T07:29:57;100432.00;;;7.63;100.00
47524;BME280;33253;42.144;25.884;2024-02-23T07:32:22;100448.25;;;7.98;100.00
47524;BME280;33253;42.144;25.884;2024-02-23T07:34:48;100372.13;;;7.64;100.00
47524;BME280;33253;42.144;25.884;2024-02-23T07:37:14;100446.22;;;8.28;100.00
47524;BME280;33253;42.144;25.884;2024-02-23T07:39:40;100439.59;;;8.33;100.00
47524;BME280;33253;42.144;25.884;2024-02-23T07:42:05;100447.22;;;8.50;100.00
47524;BME280;33253;42.144;25.884;2024-02-23T07:44:32;100448.78;;;8.66;100.00
47524;BME280;33253;42.144;25.884;2024-02-23T07:46:57;100396.59;;;8.31;100.00
47524;BME280;33253;42.144;25.884;2024-02-23T07:49:24;100451.78;;;8.75;100.00
47524;BME280;33253;42.144;25.884;2024-02-23T07:51:50;100450.66;;;8.89;100.00
47524;BME280;33253;42.144;25.884;2024-02-23T07:54:15;100460.75;;;9.04;100.00
47524;BME280;33253;42.144;25.884;2024-02-23T07:56:41;100447.97;;;9.06;100.00
47524;BME280;33253;42.144;25.884;2024-02-23T07:59:07;100451.06;;;9.18;100.00
47524;BME280;33253;42.144;25.884;2024-02-23T08:01:33;100454.00;;;9.28;100.00
47524;BME280;33253;42.144;25.884;2024-02-23T08:03:59;100446.53;;;9.34;100.00
47524;BME280;33253;42.144;25.884;2024-02-23T08:06:25;100453.22;;;9.50;100.00
47524;BME280;33253;42.144;25.884;2024-02-23T08:08:51;100448.72;;;9.67;100.00
47524;BME280;33253;42.144;25.884;2024-02-23T08:11:19;100375.59;;;9.42;100.00
47524;BME280;33253;42.144;25.884;2024-02-23T08:13:44;100450.41;;;9.87;100.00
47524;BME280;33253;42.144;25.884;2024-02-23T08:16:10;100458.03;;;10.07;100.00
47524;BME280;33253;42.144;25.884;2024-02-23T08:18:35;100453.22;;;10.16;100.00
47524;BME280;33253;42.144;25.884;2024-02-23T08:21:02;100452.41;;;10.17;100.00
47524;BME280;33253;42.144;25.884;2024-02-23T08:23:28;100437.16;;;10.24;100.00
47524;BME280;33253;42.144;25.884;2024-02-23T08:25:55;100450.19;;;10.49;100.00
47524;BME280;33253;42.144;25.884;2024-02-23T08:28:22;100453.09;;;10.59;100.00
47524;BME280;33253;42.144;25.884;2024-02-23T08:30:48;100447.19;;;10.61;100.00
47524;BME280;33253;42.144;25.884;2024-02-23T08:33:14;100464.88;;;10.75;100.00
47524;BME280;33253;42.144;25.884;2024-02-23T08:35:39;100462.69;;;10.86;100.00
47524;BME280;33253;42.144;25.884;2024-02-23T08:38:05;100458.34;;;10.84;100.00
47524;BME280;33253;42.144;25.884;2024-02-23T08:40:30;100459.38;;;10.90;100.00
47524;BME280;33253;42.144;25.884;2024-02-23T08:42:56;100455.53;;;10.78;100.00
47524;BME280;33253;42.144;25.884;2024-02-23T08:45:22;100446.38;;;10.87;100.00
47524;BME280;33253;42.144;25.884;2024-02-23T08:47:47;100452.84;;;10.99;100.00
47524;BME280;33253;42.144;25.884;2024-02-23T08:50:13;100447.84;;;11.04;100.00
47524;BME280;33253;42.144;25.884;2024-02-23T08:52:42;100445.38;;;11.09;100.00
47524;BME280;33253;42.144;25.884;2024-02-23T08:55:08;100449.78;;;11.11;100.00
47524;BME280;33253;42.144;25.884;2024-02-23T08:57:34;100384.56;;;10.67;100.00
47524;BME280;33253;42.144;25.884;2024-02-23T09:00:00;100378.06;;;10.78;100.00
47524;BME280;33253;42.144;25.884;2024-02-23T09:02:25;100447.22;;;11.37;100.00
47524;BME280;33253;42.144;25.884;2024-02-23T09:04:51;100444.38;;;11.55;100.00
47524;BME280;33253;42.144;25.884;2024-02-23T09:07:17;100395.44;;;11.34;100.00
47524;BME280;33253;42.144;25.884;2024-02-23T09:09:45;100456.13;;;11.73;100.00
47524;BME280;33253;42.144;25.884;2024-02-23T09:12:11;100442.59;;;11.81;100.00
47524;BME280;33253;42.144;25.884;2024-02-23T09:14:37;100432.53;;;11.91;100.00
47524;BME280;33253;42.144;25.884;2024-02-23T09:17:04;100449.41;;;12.05;100.00
47524;BME280;33253;42.144;25.884;2024-02-23T09:19:30;100443.66;;;12.16;100.00
47524;BME280;33253;42.144;25.884;2024-02-23T09:21:55;100449.06;;;12.23;100.00
47524;BME280;33253;42.144;25.884;2024-02-23T09:24:21;100327.31;;;11.61;100.00
47524;BME280;33253;42.144;25.884;2024-02-23T09:26:47;100405.09;;;12.25;100.00
47524;BME280;33253;42.144;25.884;2024-02-23T09:29:13;100364.06;;;12.07;97.99
47524;BME280;33253;42.144;25.884;2024-02-23T09:31:38;100435.41;;;12.58;97.07
47524;BME280;33253;42.144;25.884;2024-02-23T09:34:04;100440.16;;;12.74;97.44
47524;BME280;33253;42.144;25.884;2024-02-23T09:36:29;100436.25;;;12.89;98.38
47524;BME280;33253;42.144;25.884;2024-02-23T09:38:55;100426.25;;;13.03;98.93
47524;BME280;33253;42.144;25.884;2024-02-23T09:41:22;100419.66;;;13.16;97.19
47524;BME280;33253;42.144;25.884;2024-02-23T09:43:49;100422.66;;;13.31;94.95
47524;BME280;33253;42.144;25.884;2024-02-23T09:46:16;100408.47;;;13.52;96.11
47524;BME280;33253;42.144;25.884;2024-02-23T09:48:43;100358.56;;;13.27;94.10
47524;BME280;33253;42.144;25.884;2024-02-23T09:51:10;100407.28;;;13.75;93.20
47524;BME280;33253;42.144;25.884;2024-02-23T09:53:38;100401.53;;;13.89;93.05
47524;BME280;33253;42.144;25.884;2024-02-23T09:56:05;100398.13;;;13.91;92.35
47524;BME280;33253;42.144;25.884;2024-02-23T09:58:32;100397.38;;;13.96;92.71
47524;BME280;33253;42.144;25.884;2024-02-23T10:00:58;100395.56;;;13.93;91.37
47524;BME280;33253;42.144;25.884;2024-02-23T10:03:26;100394.03;;;14.01;93.09
47524;BME280;33253;42.144;25.884;2024-02-23T10:05:54;100395.22;;;14.17;91.74
47524;BME280;33253;42.144;25.884;2024-02-23T10:08:20;100388.50;;;14.27;92.58
47524;BME280;33253;42.144;25.884;2024-02-23T10:10:46;100364.13;;;14.20;91.60
47524;BME280;33253;42.144;25.884;2024-02-23T10:13:12;100381.84;;;14.42;91.83
47524;BME280;33253;42.144;25.884;2024-02-23T10:15:38;100364.72;;;14.50;91.16
47524;BME280;33253;42.144;25.884;2024-02-23T10:18:04;100369.56;;;14.76;90.97
47524;BME280;33253;42.144;25.884;2024-02-23T10:20:30;100307.72;;;14.59;89.88
47524;BME280;33253;42.144;25.884;2024-02-23T10:22:56;100317.63;;;14.79;87.74
47524;BME280;33253;42.144;25.884;2024-02-23T10:25:23;100345.09;;;15.15;90.26
47524;BME280;33253;42.144;25.884;2024-02-23T10:27:48;100334.69;;;15.13;88.47
47524;BME280;33253;42.144;25.884;2024-02-23T10:30:14;100320.19;;;15.29;89.94
47524;BME280;33253;42.144;25.884;2024-02-23T10:32:43;100355.44;;;15.68;85.87
47524;BME280;33253;42.144;25.884;2024-02-23T10:35:15;100352.28;;;15.88;84.82
47524;BME280;33253;42.144;25.884;2024-02-23T10:37:48;100350.84;;;16.12;84.53
47524;BME280;33253;42.144;25.884;2024-02-23T10:40:16;100342.25;;;16.22;83.74
47524;BME280;33253;42.144;25.884;2024-02-23T10:42:44;100344.09;;;16.29;84.79
47524;BME280;33253;42.144;25.884;2024-02-23T10:45:20;100335.56;;;16.44;84.69
47524;BME280;33253;42.144;25.884;2024-02-23T10:47:48;100262.34;;;16.16;82.75
47524;BME280;33253;42.144;25.884;2024-02-23T10:50:15;100325.34;;;16.61;80.57
47524;BME280;33253;42.144;25.884;2024-02-23T10:52:43;100324.53;;;16.69;80.60
47524;BME280;33253;42.144;25.884;2024-02-23T10:55:10;100325.56;;;16.86;80.43
47524;BME280;33253;42.144;25.884;2024-02-23T10:57:37;100307.50;;;17.05;80.43
47524;BME280;33253;42.144;25.884;2024-02-23T11:00:04;100312.44;;;16.78;82.24
47524;BME280;33253;42.144;25.884;2024-02-23T11:02:38;100303.81;;;16.86;81.90
47524;BME280;33253;42.144;25.884;2024-02-23T11:05:06;100303.94;;;17.00;80.21
47524;BME280;33253;42.144;25.884;2024-02-23T11:07:38;100296.13;;;16.95;80.40
47524;BME280;33253;42.144;25.884;2024-02-23T11:10:04;100293.59;;;17.09;79.90
47524;BME280;33253;42.144;25.884;2024-02-23T11:12:30;100292.84;;;17.27;80.36
47524;BME280;33253;42.144;25.884;2024-02-23T11:14:59;100276.41;;;17.42;79.39
47524;BME280;33253;42.144;25.884;2024-02-23T11:17:32;100275.56;;;17.43;77.75
47524;BME280;33253;42.144;25.884;2024-02-23T11:20:02;100278.16;;;17.40;77.95
47524;BME280;33253;42.144;25.884;2024-02-23T11:22:33;100280.00;;;17.56;77.12
47524;BME280;33253;42.144;25.884;2024-02-23T11:25:09;100237.34;;;17.50;76.04
47524;BME280;33253;42.144;25.884;2024-02-23T11:27:36;100203.41;;;17.50;76.62
47524;BME280;33253;42.144;25.884;2024-02-23T11:30:04;100255.75;;;17.85;75.71
47524;BME280;33253;42.144;25.884;2024-02-23T11:32:43;100246.19;;;17.90;75.15
47524;BME280;33253;42.144;25.884;2024-02-23T11:35:11;100246.16;;;17.83;75.12
47524;BME280;33253;42.144;25.884;2024-02-23T11:37:53;100240.03;;;17.81;73.59
47524;BME280;33253;42.144;25.884;2024-02-23T11:40:26;100231.44;;;18.00;73.28
47524;BME280;33253;42.144;25.884;2024-02-23T11:42:57;100227.13;;;18.08;75.34
47524;BME280;33253;42.144;25.884;2024-02-23T11:45:25;100219.25;;;18.05;73.71
47524;BME280;33253;42.144;25.884;2024-02-23T11:47:53;100227.13;;;18.16;72.29
47524;BME280;33253;42.144;25.884;2024-02-23T11:50:18;100213.22;;;18.30;72.85
47524;BME280;33253;42.144;25.884;2024-02-23T11:52:46;100142.63;;;17.94;70.57
47524;BME280;33253;42.144;25.884;2024-02-23T11:55:12;100217.59;;;18.49;71.48
47524;BME280;33253;42.144;25.884;2024-02-23T11:57:38;100199.28;;;18.52;68.43
47524;BME280;33253;42.144;25.884;2024-02-23T12:00:05;100196.66;;;18.72;66.49
47524;BME280;33253;42.144;25.884;2024-02-23T12:02:35;100195.78;;;18.70;66.37
47524;BME280;33253;42.144;25.884;2024-02-23T12:05:01;100184.47;;;18.70;66.92
47524;BME280;33253;42.144;25.884;2024-02-23T12:07:30;100185.31;;;18.84;66.82
47524;BME280;33253;42.144;25.884;2024-02-23T12:09:56;100083.44;;;18.18;66.82
47524;BME280;33253;42.144;25.884;2024-02-23T12:12:23;100179.25;;;18.68;66.03
47524;BME280;33253;42.144;25.884;2024-02-23T12:14:49;100184.47;;;18.68;69.90
47524;BME280;33253;42.144;25.884;2024-02-23T12:17:14;100105.19;;;18.35;63.77
47524;BME280;33253;42.144;25.884;2024-02-23T12:19:40;100189.69;;;18.87;62.99
47524;BME280;33253;42.144;25.884;2024-02-23T12:22:06;100180.06;;;19.11;62.35
47524;BME280;33253;42.144;25.884;2024-02-23T12:24:32;100180.03;;;19.18;62.20
47524;BME280;33253;42.144;25.884;2024-02-23T12:26:57;100176.50;;;19.32;60.39
47524;BME280;33253;42.144;25.884;2024-02-23T12:29:23;100175.59;;;19.42;61.31
47524;BME280;33253;42.144;25.884;2024-02-23T12:31:49;100158.06;;;19.56;58.99
47524;BME280;33253;42.144;25.884;2024-02-23T12:34:15;100161.53;;;19.62;60.36